Time;durP1;ratioP1;P1;durP2;ratioP2;P2;SDS_P1;SDS_P2;PMS_P1;PMS_P2;Temp;Humidity;BMP_temperature;BMP_pressure;BME280_temperature;BME280_humidity;BME280_pressure;Samples;Min_cycle;Max_cycle;Signal;HPM_P1;HPM_P2
2024/03/15 00:02:22;;;;;;;5.57;5.13;;;10.30;99.90;;;;;;5131126;27;20624;-77
2024/03/15 00:04:49;;;;;;;4.10;3.80;;;10.30;99.90;;;;;;5025895;28;20693;-77
2024/03/15 00:07:16;;;;;;;4.20;3.90;;;10.30;99.90;;;;;;5024450;28;20629;-77
2024/03/15 00:09:43;;;;;;;3.80;3.50;;;10.20;99.90;;;;;;5018945;28;20633;-77
2024/03/15 00:12:10;;;;;;;3.73;3.43;;;10.20;99.90;;;;;;5026278;28;20614;-77
2024/03/15 00:14:37;;;;;;;4.37;3.67;;;10.20;99.90;;;;;;5025809;28;21348;-77
2024/03/15 00:17:04;;;;;;;4.30;3.67;;;10.20;99.90;;;;;;5025994;28;20725;-77
2024/03/15 00:19:31;;;;;;;5.93;4.50;;;10.20;99.90;;;;;;5000544;28;20665;-77
2024/03/15 00:21:58;;;;;;;5.17;4.67;;;10.10;99.90;;;;;;5045747;27;20755;-77
2024/03/15 00:24:26;;;;;;;4.13;3.73;;;10.10;99.90;;;;;;5072691;28;20640;-77
2024/03/15 00:26:52;;;;;;;4.87;4.47;;;10.10;99.90;;;;;;5129963;27;20644;-77
2024/03/15 00:29:19;;;;;;;5.73;5.13;;;10.20;99.90;;;;;;5048868;27;20638;-76
2024/03/15 00:31:46;;;;;;;5.60;5.00;;;10.20;99.90;;;;;;5076486;27;20618;-77
2024/03/15 00:34:14;;;;;;;5.00;4.50;;;10.20;99.90;;;;;;5050314;28;20651;-77
2024/03/15 00:36:41;;;;;;;4.93;4.50;;;10.20;99.90;;;;;;5052227;27;20744;-77
2024/03/15 00:39:08;;;;;;;4.67;4.07;;;10.20;99.90;;;;;;5111853;27;20636;-77
2024/03/15 00:41:35;;;;;;;4.93;4.40;;;10.20;99.90;;;;;;5046055;27;20765;-77
2024/03/15 00:44:02;;;;;;;6.90;4.77;;;10.20;99.90;;;;;;5008568;28;20626;-77
2024/03/15 00:46:29;;;;;;;5.07;4.63;;;10.20;99.90;;;;;;5032413;28;20641;-77
2024/03/15 00:48:56;;;;;;;4.20;3.83;;;10.20;99.90;;;;;;5024502;28;20624;-77
2024/03/15 00:51:23;;;;;;;3.57;3.20;;;10.20;99.90;;;;;;5113743;27;20636;-77
2024/03/15 00:53:50;;;;;;;8.27;4.47;;;10.20;99.90;;;;;;5049754;27;20622;-77
2024/03/15 00:56:17;;;;;;;4.40;4.00;;;10.20;99.90;;;;;;5034364;28;21134;-77
2024/03/15 00:58:44;;;;;;;4.13;3.60;;;10.20;99.90;;;;;;5013832;28;20631;-77
2024/03/15 01:01:12;;;;;;;4.07;3.77;;;10.20;99.90;;;;;;5111485;27;20660;-77
2024/03/15 01:03:39;;;;;;;4.03;3.63;;;10.20;99.90;;;;;;5111450;27;21051;-77
2024/03/15 01:06:07;;;;;;;4.97;4.43;;;10.20;99.90;;;;;;5109552;27;20622;-77
2024/03/15 01:08:34;;;;;;;4.47;4.07;;;10.30;99.90;;;;;;4995594;28;20635;-77
2024/03/15 01:11:01;;;;;;;4.37;3.97;;;10.20;99.90;;;;;;5017873;27;20621;-77
2024/03/15 01:13:28;;;;;;;4.60;4.20;;;10.20;99.90;;;;;;5081060;27;20630;-77
2024/03/15 01:15:55;;;;;;;4.20;3.80;;;10.20;99.90;;;;;;5091637;28;20629;-77
2024/03/15 01:18:22;;;;;;;3.97;3.63;;;10.20;99.90;;;;;;5009925;28;20625;-77
2024/03/15 01:20:50;;;;;;;5.67;4.37;;;10.30;99.90;;;;;;5008846;28;20641;-77
2024/03/15 01:23:18;;;;;;;5.60;3.67;;;10.30;99.90;;;;;;5002996;28;20634;-77
2024/03/15 01:25:45;;;;;;;4.87;3.83;;;10.30;99.90;;;;;;5018452;28;20737;-77
2024/03/15 01:28:14;;;;;;;4.60;4.20;;;10.30;99.90;;;;;;5103668;27;20623;-76
2024/03/15 01:30:42;;;;;;;5.03;3.80;;;10.30;99.90;;;;;;5102490;27;20676;-77
2024/03/15 01:33:10;;;;;;;5.53;3.50;;;10.30;99.90;;;;;;5018250;28;21022;-77
2024/03/15 01:35:37;;;;;;;4.40;3.70;;;10.30;99.90;;;;;;5001600;28;20647;-76
2024/03/15 01:38:04;;;;;;;3.47;3.17;;;10.30;99.90;;;;;;5000188;28;20628;-76
2024/03/15 01:40:31;;;;;;;4.03;3.63;;;10.20;99.90;;;;;;5015942;28;20634;-76
2024/03/15 01:42:58;;;;;;;4.13;3.73;;;10.20;99.90;;;;;;5085994;27;20627;-76
2024/03/15 01:45:25;;;;;;;3.67;3.37;;;10.20;99.90;;;;;;5060636;28;20639;-76
2024/03/15 01:47:52;;;;;;;4.50;3.73;;;10.20;99.90;;;;;;5110000;27;21055;-76
2024/03/15 01:50:21;;;;;;;3.97;3.67;;;10.10;99.90;;;;;;5111276;27;20720;-76
2024/03/15 01:52:48;;;;;;;4.20;3.90;;;10.20;99.90;;;;;;5003880;28;20630;-76
2024/03/15 01:55:15;;;;;;;4.00;3.60;;;10.10;99.90;;;;;;5020937;27;20631;-76
2024/03/15 01:57:42;;;;;;;4.17;3.37;;;10.10;99.90;;;;;;5020871;28;20662;-77
2024/03/15 02:00:13;;;;;;;5.10;4.17;;;10.10;99.90;;;;;;5112394;27;20633;-76
2024/03/15 02:02:39;;;;;;;4.20;3.90;;;10.10;99.90;;;;;;5025939;28;20653;-76
2024/03/15 02:05:06;;;;;;;3.87;3.47;;;10.10;99.90;;;;;;5003299;28;20813;-77
2024/03/15 02:07:33;;;;;;;6.40;3.77;;;10.00;99.90;;;;;;5030283;28;21115;-76
2024/03/15 02:10:00;;;;;;;4.73;3.50;;;10.00;99.90;;;;;;5106505;27;21024;-76
2024/03/15 02:12:27;;;;;;;4.60;4.20;;;10.00;99.90;;;;;;5023329;27;20626;-76
2024/03/15 02:14:54;;;;;;;3.43;3.23;;;10.00;99.90;;;;;;5009827;28;20630;-77
2024/03/15 02:17:21;;;;;;;4.37;3.97;;;9.90;99.90;;;;;;5008080;28;20702;-77
2024/03/15 02:19:49;;;;;;;6.50;3.93;;;9.80;99.90;;;;;;5097524;27;20722;-77
2024/03/15 02:22:16;;;;;;;4.00;3.57;;;9.80;99.90;;;;;;5023867;28;20652;-77
2024/03/15 02:24:43;;;;;;;4.23;3.83;;;9.70;99.90;;;;;;5013078;28;20762;-77
2024/03/15 02:27:13;;;;;;;4.43;4.10;;;9.70;99.90;;;;;;5034277;27;21026;-77
2024/03/15 02:29:41;;;;;;;4.20;3.80;;;9.80;99.90;;;;;;5009416;28;20721;-77
2024/03/15 02:32:08;;;;;;;4.70;4.30;;;9.80;99.90;;;;;;5108250;27;20994;-77
2024/03/15 02:34:36;;;;;;;4.80;4.23;;;9.70;99.90;;;;;;5123826;27;20637;-77
2024/03/15 02:37:07;;;;;;;5.07;4.50;;;9.70;99.90;;;;;;5050586;28;20701;-77
2024/03/15 02:39:35;;;;;;;4.50;3.70;;;9.70;99.90;;;;;;5013080;28;20683;-77
2024/03/15 02:42:03;;;;;;;4.23;3.87;;;9.70;99.90;;;;;;5004640;28;21235;-77
2024/03/15 02:44:31;;;;;;;4.30;4.00;;;9.60;99.90;;;;;;4999615;28;20622;-77
2024/03/15 02:46:58;;;;;;;3.90;3.60;;;9.60;99.90;;;;;;5109142;27;20614;-77
2024/03/15 02:49:25;;;;;;;5.43;4.43;;;9.50;99.90;;;;;;5119759;27;20717;-76
2024/03/15 02:51:52;;;;;;;5.33;4.10;;;9.50;99.90;;;;;;5016138;28;21193;-77
2024/03/15 02:54:20;;;;;;;4.67;4.20;;;9.40;99.90;;;;;;5023237;27;20621;-77
2024/03/15 02:56:48;;;;;;;5.40;3.87;;;9.40;99.90;;;;;;5067375;28;20625;-77
2024/03/15 02:59:16;;;;;;;4.37;3.97;;;9.30;99.90;;;;;;5036036;28;20623;-77
2024/03/15 03:01:46;;;;;;;7.90;4.37;;;9.30;99.90;;;;;;5034139;28;20708;-77
2024/03/15 03:04:13;;;;;;;3.67;3.40;;;9.30;99.90;;;;;;5045660;28;20629;-77
2024/03/15 03:06:42;;;;;;;5.87;3.73;;;9.30;99.90;;;;;;5015697;28;20628;-77
2024/03/15 03:09:09;;;;;;;3.90;3.50;;;9.30;99.90;;;;;;5013070;28;20622;-77
2024/03/15 03:11:37;;;;;;;6.07;4.40;;;9.20;99.90;;;;;;5044944;28;21007;-77
2024/03/15 03:14:04;;;;;;;4.20;3.67;;;9.20;99.90;;;;;;5042330;28;20625;-78
2024/03/15 03:16:33;;;;;;;4.73;3.60;;;9.20;99.90;;;;;;5131203;27;20647;-77
2024/03/15 03:19:01;;;;;;;3.97;3.60;;;9.20;99.90;;;;;;5055327;28;20621;-77
2024/03/15 03:21:28;;;;;;;4.10;3.70;;;9.10;99.90;;;;;;5018702;27;20654;-77
2024/03/15 03:23:56;;;;;;;4.90;3.57;;;9.10;99.90;;;;;;5079903;27;20631;-77
2024/03/15 03:26:23;;;;;;;4.37;3.97;;;9.10;99.90;;;;;;5031779;28;20659;-77
2024/03/15 03:28:50;;;;;;;5.17;3.40;;;9.10;99.90;;;;;;5024104;28;21057;-77
2024/03/15 03:31:17;;;;;;;6.57;3.07;;;9.10;99.90;;;;;;5027760;28;20666;-77
2024/03/15 03:33:44;;;;;;;4.07;3.50;;;9.10;99.90;;;;;;5020934;28;20660;-76
2024/03/15 03:36:12;;;;;;;4.37;3.93;;;9.10;99.90;;;;;;5011869;28;20659;-77
2024/03/15 03:38:39;;;;;;;3.40;2.97;;;9.20;99.90;;;;;;5005059;28;20624;-76
2024/03/15 03:41:08;;;;;;;3.83;3.37;;;9.10;99.90;;;;;;5096782;27;20624;-77
2024/03/15 03:43:37;;;;;;;3.63;3.33;;;9.10;99.90;;;;;;5112414;27;20678;-77
2024/03/15 03:46:06;;;;;;;5.17;3.80;;;9.10;99.90;;;;;;5054031;27;20615;-77
2024/03/15 03:48:33;;;;;;;4.17;3.90;;;9.10;99.90;;;;;;5078018;28;20632;-77
2024/03/15 03:51:01;;;;;;;3.30;3.00;;;9.10;99.90;;;;;;5011421;28;20727;-77
2024/03/15 03:53:29;;;;;;;3.63;3.33;;;9.10;99.90;;;;;;5037857;28;20626;-77
2024/03/15 03:55:56;;;;;;;7.40;3.60;;;9.10;99.90;;;;;;5101216;27;20627;-77
2024/03/15 03:58:24;;;;;;;3.53;3.23;;;9.10;99.90;;;;;;5060627;28;21174;-77
2024/03/15 04:00:51;;;;;;;3.73;3.43;;;9.10;99.90;;;;;;5048143;27;20625;-77
2024/03/15 04:03:18;;;;;;;3.87;3.57;;;9.10;99.90;;;;;;5047037;28;20666;-77
2024/03/15 04:05:45;;;;;;;3.53;3.23;;;9.10;99.90;;;;;;5000594;28;20639;-77
2024/03/15 04:08:12;;;;;;;2.80;2.47;;;9.10;99.90;;;;;;5098692;27;20733;-77
2024/03/15 04:10:39;;;;;;;4.23;3.10;;;9.10;99.90;;;;;;5011002;28;20698;-77
2024/03/15 04:13:06;;;;;;;4.83;3.40;;;9.10;99.90;;;;;;5027786;27;20633;-77
2024/03/15 04:15:33;;;;;;;3.83;3.53;;;9.10;99.90;;;;;;5104417;27;20621;-77
2024/03/15 04:18:01;;;;;;;3.70;2.80;;;9.10;99.90;;;;;;5010898;28;20643;-77
2024/03/15 04:20:29;;;;;;;3.47;3.17;;;9.10;99.90;;;;;;5123420;27;20691;-77
2024/03/15 04:22:56;;;;;;;3.27;3.07;;;9.10;99.90;;;;;;5034437;27;20656;-77
2024/03/15 04:25:23;;;;;;;3.10;2.90;;;9.30;99.90;;;;;;5017302;28;20633;-77
2024/03/15 04:27:51;;;;;;;4.03;3.43;;;9.30;99.90;;;;;;5033031;27;20630;-77
2024/03/15 04:30:21;;;;;;;5.23;3.17;;;9.20;99.90;;;;;;5013638;28;21265;-77
2024/03/15 04:32:49;;;;;;;4.63;2.63;;;9.20;99.90;;;;;;5027781;28;20642;-77
2024/03/15 04:35:17;;;;;;;3.80;3.33;;;9.30;99.90;;;;;;5015406;28;21169;-77
2024/03/15 04:37:44;;;;;;;2.97;2.57;;;9.30;99.90;;;;;;5027824;28;20681;-77
2024/03/15 04:40:13;;;;;;;2.40;2.20;;;9.40;99.90;;;;;;5031758;27;20627;-77
2024/03/15 04:42:40;;;;;;;3.87;2.87;;;9.30;99.90;;;;;;5109855;27;20790;-77
2024/03/15 04:45:09;;;;;;;3.00;2.70;;;9.40;99.90;;;;;;5035353;27;20731;-77
2024/03/15 04:47:37;;;;;;;2.80;2.60;;;9.40;99.90;;;;;;5051626;27;20686;-77
2024/03/15 04:50:05;;;;;;;4.63;2.93;;;9.50;99.90;;;;;;5044378;27;20625;-77
2024/03/15 04:52:33;;;;;;;3.40;3.10;;;9.50;99.90;;;;;;5054683;27;20711;-77
2024/03/15 04:55:00;;;;;;;4.60;2.40;;;9.40;99.90;;;;;;5037437;27;21072;-77
2024/03/15 04:57:28;;;;;;;5.30;3.37;;;9.50;99.90;;;;;;5008152;28;21164;-77
2024/03/15 04:59:54;;;;;;;2.70;2.50;;;9.50;99.90;;;;;;5021696;28;20626;-77
2024/03/15 05:02:22;;;;;;;2.97;2.77;;;9.40;99.90;;;;;;5102270;27;20753;-77
2024/03/15 05:04:49;;;;;;;5.00;1.97;;;9.50;99.90;;;;;;5071900;27;20622;-77
2024/03/15 05:07:16;;;;;;;3.67;2.87;;;9.50;99.90;;;;;;5093934;27;20654;-77
2024/03/15 05:09:43;;;;;;;4.27;2.03;;;9.50;99.90;;;;;;5015628;28;20629;-77
2024/03/15 05:12:10;;;;;;;2.50;2.30;;;9.40;99.90;;;;;;5016232;28;20723;-77
2024/03/15 05:14:37;;;;;;;3.67;3.27;;;9.40;99.90;;;;;;5111261;27;20625;-77
2024/03/15 05:17:04;;;;;;;3.90;3.50;;;9.40;99.90;;;;;;5028681;28;20744;-77
2024/03/15 05:19:30;;;;;;;3.93;3.27;;;9.30;99.90;;;;;;5003457;28;20630;-77
2024/03/15 05:21:58;;;;;;;3.27;2.97;;;9.40;99.90;;;;;;5010102;28;20738;-77
2024/03/15 05:24:25;;;;;;;4.17;2.63;;;9.40;99.90;;;;;;5003732;28;21216;-77
2024/03/15 05:26:52;;;;;;;3.40;2.50;;;9.30;99.90;;;;;;5020983;28;20635;-77
2024/03/15 05:29:20;;;;;;;4.50;2.60;;;9.30;99.90;;;;;;5031973;27;21101;-77
2024/03/15 05:31:47;;;;;;;3.20;2.90;;;9.30;99.90;;;;;;5129259;27;20620;-77
2024/03/15 05:34:15;;;;;;;2.90;2.70;;;9.30;99.90;;;;;;5068641;28;21268;-77
2024/03/15 05:36:42;;;;;;;3.30;2.17;;;9.30;99.90;;;;;;5071754;28;20826;-79
2024/03/15 05:39:10;;;;;;;2.30;2.10;;;9.30;99.90;;;;;;5019873;28;20623;-77
2024/03/15 05:41:38;;;;;;;2.67;2.47;;;9.30;99.90;;;;;;5034945;28;20736;-76
2024/03/15 05:44:05;;;;;;;3.13;2.83;;;9.30;99.90;;;;;;5014555;28;20618;-75
2024/03/15 05:46:32;;;;;;;2.87;2.57;;;9.30;99.90;;;;;;5023863;28;20628;-75
2024/03/15 05:49:00;;;;;;;2.60;2.40;;;9.20;99.90;;;;;;5115473;27;20616;-76
2024/03/15 05:51:27;;;;;;;2.80;2.53;;;9.20;99.90;;;;;;5048741;27;20616;-76
2024/03/15 05:53:54;;;;;;;2.77;2.50;;;9.20;99.90;;;;;;5012527;28;20626;-76
2024/03/15 05:56:23;;;;;;;2.97;2.47;;;9.20;99.90;;;;;;5008896;28;20613;-77
2024/03/15 05:58:50;;;;;;;3.40;2.40;;;9.30;99.90;;;;;;5000993;28;20979;-75
2024/03/15 06:01:17;;;;;;;2.40;2.20;;;9.30;99.90;;;;;;5066944;27;20628;-75
2024/03/15 06:03:44;;;;;;;2.73;2.33;;;9.30;99.90;;;;;;5059721;27;20690;-77
2024/03/15 06:06:11;;;;;;;3.53;2.20;;;9.30;99.90;;;;;;5064051;27;20633;-76
2024/03/15 06:08:38;;;;;;;4.30;2.90;;;9.30;99.90;;;;;;5028527;28;21008;-75
2024/03/15 06:11:05;;;;;;;6.80;2.80;;;9.40;99.90;;;;;;5036077;27;20635;-75
2024/03/15 06:13:33;;;;;;;3.07;2.80;;;9.40;99.90;;;;;;5065337;27;20681;-74
2024/03/15 06:16:01;;;;;;;4.00;2.50;;;9.40;99.90;;;;;;5031724;28;21134;-75
2024/03/15 06:18:27;;;;;;;3.97;2.53;;;9.40;99.90;;;;;;5123386;27;20637;-75
2024/03/15 06:20:54;;;;;;;5.43;3.00;;;9.40;99.90;;;;;;5037130;28;20637;-74
2024/03/15 06:23:21;;;;;;;2.40;2.20;;;9.40;99.90;;;;;;5017711;27;21293;-75
2024/03/15 06:25:48;;;;;;;3.57;2.67;;;9.40;99.90;;;;;;5061826;27;20660;-74
2024/03/15 06:28:15;;;;;;;2.47;2.27;;;9.40;99.90;;;;;;5036653;27;20646;-74
2024/03/15 06:30:45;;;;;;;2.63;2.43;;;9.50;99.90;;;;;;5039348;27;20734;-74
2024/03/15 06:33:13;;;;;;;3.73;2.80;;;9.40;99.90;;;;;;5111197;27;21075;-75
2024/03/15 06:35:43;;;;;;;7.43;3.67;;;9.50;99.90;;;;;;5048712;27;20627;-75
2024/03/15 06:38:27;;;;;;;3.50;3.20;;;9.50;99.90;;;;;;5044083;27;20988;-75
2024/03/15 06:41:07;;;;;;;7.87;3.30;;;9.50;99.90;;;;;;5008785;28;20634;-75
2024/03/15 06:43:41;;;;;;;5.13;3.40;;;9.60;99.90;;;;;;5025648;28;21220;-75
2024/03/15 06:46:09;;;;;;;5.60;2.60;;;9.50;99.90;;;;;;5110187;27;20681;-75
2024/03/15 06:48:44;;;;;;;3.13;2.83;;;9.50;99.90;;;;;;5065081;27;20629;-75
2024/03/15 06:53:56;;;;;;;3.57;3.20;;;9.60;99.90;;;;;;5005984;28;20619;-75
2024/03/15 06:56:23;;;;;;;3.33;3.13;;;9.70;99.90;;;;;;5100012;28;21009;-74
2024/03/15 06:58:50;;;;;;;3.43;2.90;;;9.70;99.90;;;;;;5100847;27;20621;-75
2024/03/15 07:01:17;;;;;;;4.13;3.73;;;9.70;99.90;;;;;;5007934;28;20661;-75
2024/03/15 07:03:44;;;;;;;3.10;2.50;;;9.80;99.90;;;;;;5109779;27;20683;-76
2024/03/15 07:06:11;;;;;;;4.73;3.37;;;9.90;99.90;;;;;;5001875;28;20731;-75
2024/03/15 07:08:39;;;;;;;2.77;2.57;;;10.10;99.90;;;;;;5006357;28;20626;-76
2024/03/15 07:11:06;;;;;;;4.87;2.13;;;10.10;99.80;;;;;;5007683;28;20629;-75
2024/03/15 07:13:33;;;;;;;3.50;3.13;;;10.30;99.70;;;;;;5107157;27;21059;-75
2024/03/15 07:16:00;;;;;;;2.37;2.20;;;10.30;99.80;;;;;;5005190;28;20741;-75
2024/03/15 07:18:27;;;;;;;3.00;2.67;;;10.50;99.90;;;;;;5020325;28;21242;-75
2024/03/15 07:20:56;;;;;;;2.80;2.30;;;10.70;99.90;;;;;;5031855;28;20637;-75
2024/03/15 07:23:25;;;;;;;5.43;2.67;;;10.90;99.20;;;;;;5023940;28;20655;-75
2024/03/15 07:25:52;;;;;;;3.60;3.30;;;11.00;99.20;;;;;;5099029;27;20623;-75
2024/03/15 07:28:21;;;;;;;4.70;3.17;;;11.20;99.00;;;;;;5015951;28;20650;-75
2024/03/15 07:30:48;;;;;;;2.90;2.70;;;11.20;98.30;;;;;;5018879;28;20635;-75
2024/03/15 07:33:17;;;;;;;2.30;2.10;;;11.30;98.00;;;;;;5107911;28;20649;-75
2024/03/15 07:35:45;;;;;;;4.40;2.80;;;11.50;98.10;;;;;;5103100;27;20662;-75
2024/03/15 07:38:11;;;;;;;2.60;2.40;;;11.60;97.90;;;;;;5011517;28;21164;-74
2024/03/15 07:40:39;;;;;;;3.10;2.80;;;11.70;97.80;;;;;;5114438;28;20748;-83
2024/03/15 07:43:06;;;;;;;2.60;2.40;;;11.80;97.80;;;;;;5007959;28;20805;-83
2024/03/15 07:45:33;;;;;;;1.97;1.87;;;12.10;97.20;;;;;;5020922;28;20633;-83
2024/03/15 07:48:01;;;;;;;2.70;2.20;;;12.00;97.00;;;;;;5012058;28;20624;-83
2024/03/15 07:50:28;;;;;;;4.13;2.40;;;12.00;97.20;;;;;;5026695;28;20640;-84
2024/03/15 07:52:55;;;;;;;4.07;2.10;;;12.10;97.00;;;;;;5001838;28;20728;-83
2024/03/15 07:55:22;;;;;;;2.53;2.33;;;12.20;96.90;;;;;;5022001;28;20661;-84
2024/03/15 07:57:49;;;;;;;3.63;2.33;;;12.20;96.90;;;;;;5109765;27;21076;-84
2024/03/15 08:00:16;;;;;;;3.90;2.67;;;12.30;96.80;;;;;;5009617;28;20720;-84
2024/03/15 08:02:43;;;;;;;2.50;2.30;;;12.50;96.50;;;;;;5032956;28;20622;-83
2024/03/15 08:05:12;;;;;;;4.40;3.03;;;12.40;95.90;;;;;;5010316;28;20635;-83
2024/03/15 08:07:40;;;;;;;3.17;2.10;;;12.30;95.90;;;;;;5029810;28;21192;-83
2024/03/15 08:10:10;;;;;;;3.03;2.77;;;12.60;96.20;;;;;;5011852;28;20706;-83
2024/03/15 08:12:39;;;;;;;2.40;2.20;;;12.70;96.00;;;;;;5007952;28;20620;-83
2024/03/15 08:15:07;;;;;;;1.97;1.87;;;12.70;95.50;;;;;;5020220;28;20614;-83
2024/03/15 08:17:35;;;;;;;2.47;2.27;;;12.70;95.30;;;;;;5106019;27;20619;-83
2024/03/15 08:20:05;;;;;;;3.33;2.10;;;12.90;95.20;;;;;;5015174;28;20676;-83
2024/03/15 08:22:33;;;;;;;6.20;2.13;;;12.90;95.80;;;;;;5011864;28;20642;-83
2024/03/15 08:25:00;;;;;;;2.10;2.00;;;13.00;95.70;;;;;;5012524;28;20645;-84
2024/03/15 08:27:29;;;;;;;3.40;2.20;;;13.00;95.30;;;;;;5024805;28;20770;-83
2024/03/15 08:29:57;;;;;;;2.97;2.30;;;13.10;95.50;;;;;;5015803;27;20624;-81
2024/03/15 08:32:24;;;;;;;3.13;2.10;;;13.10;94.80;;;;;;5071600;27;20650;-81
2024/03/15 08:34:51;;;;;;;5.10;3.07;;;13.40;95.30;;;;;;5010650;28;21008;-82
2024/03/15 08:37:18;;;;;;;3.07;2.30;;;13.30;95.70;;;;;;5025126;28;20625;-81
2024/03/15 08:39:45;;;;;;;4.27;2.40;;;13.40;95.30;;;;;;5111543;27;20631;-82
2024/03/15 08:42:12;;;;;;;3.70;1.93;;;13.50;95.30;;;;;;5022479;27;20733;-76
2024/03/15 08:44:39;;;;;;;2.27;2.17;;;13.60;94.80;;;;;;5051055;27;20665;-77
2024/03/15 08:47:06;;;;;;;2.87;2.07;;;13.70;94.80;;;;;;5023777;28;20634;-77
2024/03/15 08:49:35;;;;;;;2.80;2.13;;;13.80;94.70;;;;;;5032561;28;21269;-81
2024/03/15 08:52:02;;;;;;;2.57;2.37;;;13.90;94.50;;;;;;5048659;27;20733;-80
2024/03/15 08:54:29;;;;;;;1.90;1.80;;;14.00;94.30;;;;;;5012044;27;20746;-80
2024/03/15 08:56:57;;;;;;;4.43;1.90;;;14.10;94.10;;;;;;5073074;27;20623;-81
2024/03/15 08:59:24;;;;;;;2.57;1.87;;;14.20;94.20;;;;;;5111330;27;20684;-80
2024/03/15 09:01:52;;;;;;;2.17;1.97;;;14.30;94.70;;;;;;5023579;28;20725;-82
2024/03/15 09:04:22;;;;;;;3.90;2.10;;;14.60;94.50;;;;;;5111791;27;20746;-81
2024/03/15 09:06:51;;;;;;;2.37;2.07;;;14.70;94.40;;;;;;5009563;28;20646;-80
2024/03/15 09:09:21;;;;;;;2.27;2.07;;;14.70;93.60;;;;;;5010942;28;20623;-80
2024/03/15 09:11:49;;;;;;;1.90;1.77;;;14.80;94.30;;;;;;5107092;27;20663;-80
2024/03/15 09:14:19;;;;;;;2.40;1.70;;;14.90;93.40;;;;;;5002364;28;20737;-80
2024/03/15 09:16:50;;;;;;;2.20;2.00;;;15.00;93.50;;;;;;5025399;28;20632;-80
2024/03/15 09:19:17;;;;;;;2.87;2.67;;;15.20;93.80;;;;;;5005287;28;20619;-81
2024/03/15 09:21:46;;;;;;;2.37;1.93;;;15.30;92.80;;;;;;5009480;28;20666;-80
2024/03/15 09:24:12;;;;;;;2.30;1.80;;;15.30;92.70;;;;;;5007119;28;20673;-80
2024/03/15 09:26:38;;;;;;;2.30;2.10;;;15.30;92.60;;;;;;5104160;27;21238;-81
2024/03/15 09:29:06;;;;;;;2.10;1.73;;;15.40;92.80;;;;;;5102822;27;20628;-80
2024/03/15 09:31:35;;;;;;;1.50;1.40;;;15.50;91.90;;;;;;5008060;28;21185;-80
2024/03/15 09:34:02;;;;;;;2.00;1.80;;;15.50;92.60;;;;;;5006517;28;20637;-81
2024/03/15 09:36:31;;;;;;;3.13;1.70;;;15.60;91.70;;;;;;5020554;28;20722;-80
2024/03/15 09:38:58;;;;;;;1.97;1.77;;;15.60;91.70;;;;;;5031197;28;20733;-80
2024/03/15 09:41:25;;;;;;;1.73;1.53;;;15.70;91.30;;;;;;4999922;28;20722;-79
2024/03/15 09:43:52;;;;;;;2.20;2.00;;;15.80;91.20;;;;;;5014855;28;20691;-81
2024/03/15 09:46:20;;;;;;;5.50;2.40;;;15.90;91.20;;;;;;5019492;28;20629;-80
2024/03/15 09:48:49;;;;;;;2.23;1.70;;;16.00;91.90;;;;;;5005182;28;20659;-81
2024/03/15 09:51:16;;;;;;;4.00;1.93;;;16.10;91.40;;;;;;5008216;28;20635;-80
2024/03/15 09:53:44;;;;;;;2.07;1.90;;;16.10;91.60;;;;;;5008708;28;20670;-80
2024/03/15 09:56:14;;;;;;;1.87;1.77;;;16.30;91.90;;;;;;5109366;27;21270;-81
2024/03/15 09:58:42;;;;;;;4.40;1.87;;;16.30;91.50;;;;;;5113580;27;20675;-80
2024/03/15 10:01:09;;;;;;;2.40;1.40;;;16.50;90.90;;;;;;5015831;28;21072;-81
2024/03/15 10:03:36;;;;;;;1.60;1.50;;;16.80;91.00;;;;;;5025020;28;20763;-81
2024/03/15 10:06:03;;;;;;;2.60;2.00;;;17.10;90.50;;;;;;5037567;27;20735;-81
2024/03/15 10:08:29;;;;;;;2.13;1.93;;;17.10;88.10;;;;;;5029545;27;20750;-81
2024/03/15 10:10:57;;;;;;;1.60;1.50;;;17.10;88.80;;;;;;5012074;28;20714;-81
2024/03/15 10:13:24;;;;;;;2.10;1.60;;;16.90;89.60;;;;;;5008438;28;21043;-77
2024/03/15 10:15:51;;;;;;;1.60;1.50;;;16.50;89.70;;;;;;5095395;27;20658;-77
2024/03/15 10:18:18;;;;;;;2.27;1.63;;;16.40;90.30;;;;;;5007967;28;20744;-77
2024/03/15 10:20:46;;;;;;;5.20;2.10;;;16.30;90.60;;;;;;5100668;27;21265;-77
2024/03/15 10:23:13;;;;;;;2.70;2.00;;;16.20;90.20;;;;;;5026970;27;20655;-77
2024/03/15 10:25:40;;;;;;;2.80;1.80;;;16.10;90.30;;;;;;5029482;28;21078;-77
2024/03/15 10:28:08;;;;;;;2.73;1.20;;;16.00;90.70;;;;;;4996551;28;20718;-77
2024/03/15 10:30:36;;;;;;;2.00;1.70;;;15.90;89.80;;;;;;5009128;27;20635;-77
2024/03/15 10:33:04;;;;;;;1.43;1.33;;;15.80;90.00;;;;;;5049885;27;21214;-77
2024/03/15 10:35:30;;;;;;;1.40;1.30;;;15.60;90.30;;;;;;5016172;28;20632;-77
2024/03/15 10:37:58;;;;;;;1.10;1.00;;;15.60;90.70;;;;;;5002650;28;20624;-77
2024/03/15 10:40:25;;;;;;;1.30;1.20;;;15.60;90.40;;;;;;5054722;27;20638;-77
2024/03/15 10:42:52;;;;;;;1.40;1.30;;;15.70;91.00;;;;;;5044862;27;20622;-77
2024/03/15 10:45:20;;;;;;;1.67;1.57;;;15.60;91.20;;;;;;5040386;27;20667;-77
2024/03/15 10:47:47;;;;;;;1.53;1.43;;;15.40;92.10;;;;;;5046530;28;20624;-77
2024/03/15 10:50:15;;;;;;;2.40;2.20;;;15.30;93.50;;;;;;5024734;28;20631;-77
2024/03/15 10:52:42;;;;;;;3.90;2.20;;;15.10;94.80;;;;;;5008777;28;21060;-77
2024/03/15 10:55:12;;;;;;;5.73;5.17;;;15.00;95.70;;;;;;5035833;27;20670;-77
2024/03/15 10:57:39;;;;;;;3.20;2.00;;;15.00;96.30;;;;;;5029288;28;20639;-77
2024/03/15 11:00:14;;;;;;;8.37;4.40;;;15.10;95.30;;;;;;5099747;27;20726;-77
2024/03/15 11:02:41;;;;;;;1.97;1.80;;;15.00;96.40;;;;;;5020157;28;20723;-77
2024/03/15 11:05:12;;;;;;;1.60;1.50;;;15.00;96.30;;;;;;4998919;28;21280;-77
2024/03/15 11:07:41;;;;;;;2.17;1.70;;;15.00;96.40;;;;;;5007809;28;20635;-77
2024/03/15 11:10:10;;;;;;;3.17;1.73;;;15.00;95.00;;;;;;5004976;28;20619;-75
2024/03/15 11:12:37;;;;;;;2.27;2.07;;;15.10;95.40;;;;;;5010529;28;20959;-75
2024/03/15 11:15:10;;;;;;;2.03;1.73;;;15.10;95.20;;;;;;5010777;28;20726;-75
2024/03/15 11:17:37;;;;;;;2.67;1.37;;;15.20;95.30;;;;;;5013341;28;20692;-75
2024/03/15 11:20:05;;;;;;;3.33;1.77;;;15.10;94.90;;;;;;5010222;28;20717;-75
2024/03/15 11:22:32;;;;;;;2.13;1.90;;;15.10;94.90;;;;;;5010346;28;21181;-75
2024/03/15 11:24:59;;;;;;;2.03;1.80;;;15.10;94.70;;;;;;5023092;28;20666;-75
2024/03/15 11:27:27;;;;;;;2.87;2.20;;;15.20;95.00;;;;;;5067660;27;20729;-72
2024/03/15 11:29:56;;;;;;;2.43;1.90;;;15.30;94.80;;;;;;5032633;28;20635;-73
2024/03/15 11:32:23;;;;;;;1.73;1.60;;;15.50;94.40;;;;;;5077531;28;20994;-73
2024/03/15 11:34:50;;;;;;;2.07;1.97;;;15.60;93.80;;;;;;5063753;27;20736;-72
2024/03/15 11:37:22;;;;;;;2.20;2.00;;;15.60;93.60;;;;;;5068625;27;21187;-73
2024/03/15 11:39:59;;;;;;;2.70;1.73;;;15.70;93.40;;;;;;5060740;27;20963;-73
2024/03/15 11:42:26;;;;;;;1.53;1.43;;;16.00;92.50;;;;;;5106884;27;21087;-73
2024/03/15 11:44:54;;;;;;;3.00;2.10;;;16.20;92.70;;;;;;5024365;28;20654;-74
2024/03/15 11:47:21;;;;;;;3.03;2.20;;;16.50;92.20;;;;;;5007648;28;20624;-74
2024/03/15 11:49:54;;;;;;;2.13;1.97;;;16.50;91.80;;;;;;5024640;28;20733;-73
2024/03/15 11:52:21;;;;;;;4.03;1.90;;;16.40;91.20;;;;;;5029338;27;20627;-74
2024/03/15 11:54:52;;;;;;;7.83;1.90;;;16.60;92.10;;;;;;5045024;27;20623;-73
2024/03/15 11:57:20;;;;;;;2.10;1.90;;;16.40;90.50;;;;;;5062862;27;20626;-74
2024/03/15 11:59:47;;;;;;;2.00;1.80;;;16.30;90.30;;;;;;5041175;27;20989;-74
2024/03/15 12:02:14;;;;;;;3.33;1.70;;;16.30;90.50;;;;;;5025211;28;20618;-73
2024/03/15 12:04:41;;;;;;;2.60;1.63;;;16.40;90.60;;;;;;5039615;27;20762;-74
2024/03/15 12:07:08;;;;;;;7.60;2.27;;;16.70;90.70;;;;;;5027945;27;20722;-73
2024/03/15 12:09:40;;;;;;;1.60;1.50;;;16.90;90.70;;;;;;5013809;28;20721;-73
2024/03/15 12:12:07;;;;;;;2.20;2.00;;;17.10;89.90;;;;;;5003838;28;20624;-73
2024/03/15 12:14:34;;;;;;;1.73;1.50;;;17.30;90.30;;;;;;5124003;27;20611;-74
2024/03/15 12:17:01;;;;;;;2.17;1.77;;;17.30;88.50;;;;;;5004695;28;20716;-73
2024/03/15 12:19:28;;;;;;;3.67;2.40;;;17.10;87.30;;;;;;5009976;28;20964;-73
2024/03/15 12:21:55;;;;;;;2.30;1.77;;;17.00;89.90;;;;;;5026758;28;20631;-73
2024/03/15 12:24:23;;;;;;;2.27;2.07;;;17.00;90.10;;;;;;5017016;28;20785;-74
2024/03/15 12:26:50;;;;;;;5.07;2.43;;;16.90;88.80;;;;;;5031275;27;20707;-74
2024/03/15 12:29:17;;;;;;;1.67;1.57;;;16.70;88.60;;;;;;5029795;27;21193;-74
2024/03/15 12:31:44;;;;;;;1.90;1.70;;;16.20;87.70;;;;;;5006491;28;20634;-74
2024/03/15 12:34:11;;;;;;;2.57;1.47;;;16.20;88.60;;;;;;5007939;28;20616;-74
2024/03/15 12:36:38;;;;;;;2.70;1.23;;;16.10;90.20;;;;;;5119414;27;20718;-74
2024/03/15 12:39:06;;;;;;;5.50;1.87;;;16.10;88.50;;;;;;5029771;27;20659;-74
2024/03/15 12:41:32;;;;;;;3.03;2.73;;;16.00;88.80;;;;;;5015429;28;20632;-74
2024/03/15 12:44:00;;;;;;;2.57;1.57;;;16.00;88.80;;;;;;5024053;28;20625;-74
2024/03/15 12:46:26;;;;;;;2.03;1.50;;;15.90;88.40;;;;;;5004857;28;20646;-74
2024/03/15 12:48:54;;;;;;;5.00;1.70;;;15.90;89.00;;;;;;5020908;28;21052;-75
2024/03/15 12:51:21;;;;;;;1.53;1.43;;;15.90;88.90;;;;;;5103547;27;20632;-77
2024/03/15 12:53:48;;;;;;;5.03;2.17;;;15.90;89.20;;;;;;5038922;27;20666;-78
2024/03/15 12:56:15;;;;;;;1.40;1.30;;;16.20;90.30;;;;;;5053083;27;20635;-77